Gloucester, United Kingdom
Current Conditions -  °F | °C
As of 7:20 AM on Thursday 18 Dec 2014 (Local Time) from EGBJ Reporting Station
Broken Clouds Broken Clouds  
Wind Chill: 54°   Ceiling: 1200
Heat Index: 54°   Visibility: 6mi
Dew Point: 52°   Wind: 14mph
Humidity: 94%   Direction: 220°SW
Pressure: 29.77"   Gusts: NA
Location:  51.87°N, 2.24°W
Report Text: EGBJ 180720Z 22012KT 9999 FEW009 BKN012 12/11 Q1008
Loading
Personal Weather Stations






























Interactive Weather Map New forecast layout! Learn more

10-Day Weather Forecast

Advertisements
Track Severe Weather on mobile